YAC weather

Cat Lake Airport
Cat Lake, Ontario, Canada

Public forecast

Using degrees Celsius for public forecast. Weather courtesy of forecast.io.

METAR (pilot weather report)

Closest report is Pickle Lake Airport, 62.4 nm (115.5 km) ESE. Retrieved 2019/05/19 12:28 UTC (0 seconds ago):

CYPL 191228Z 04009KT 15SM BKN011 01/M02 A3017 RMK SC6 SLP237

TAF (pilot weather forecast)

Closest forecast is Pickle Lake Airport, 62.4 nm (115.5 km) ESE. Retrieved 2019/05/19 13:45 UTC (0 seconds ago):

TAF TAF CYPL 191243Z 1913/2001 04010KT P6SM BKN010 TEMPO 1913/1916 BKN007 FM191600 03010KT P6SM BKN015 TEMPO 1916/2001 BKN030 RMK NXT FCST BY 192000Z